Time;durP1;ratioP1;P1;durP2;ratioP2;P2;SDS_P1;SDS_P2;PMS_P1;PMS_P2;Temp;Humidity;BMP_temperature;BMP_pressure;BME280_temperature;BME280_humidity;BME280_pressure;Samples;Min_cycle;Max_cycle;Signal;HPM_P1;HPM_P2
2021/04/11 00:00:51;;;;;;;0.30;0.20;;;;;;;9.91;100.00;99541.69;5047877;28;20462;-57
2021/04/11 00:03:20;;;;;;;0.53;0.53;;;;;;;10.22;100.00;99530.78;5053755;28;20459;-57
2021/04/11 00:05:47;;;;;;;0.30;0.20;;;;;;;10.02;100.00;99533.31;5054588;28;20457;-57
2021/04/11 00:08:15;;;;;;;0.67;0.67;;;;;;;9.95;100.00;99522.06;5048704;28;20512;-57
2021/04/11 00:10:44;;;;;;;0.30;0.20;;;;;;;9.83;100.00;99524.31;5054660;28;20451;-57
2021/04/11 00:13:14;;;;;;;0.30;0.20;;;;;;;9.78;100.00;99530.66;5054603;28;20954;-58
2021/04/11 00:15:41;;;;;;;0.40;0.20;;;;;;;9.77;100.00;99523.63;5051794;28;20455;-57
2021/04/11 00:18:07;;;;;;;0.30;0.20;;;;;;;9.64;100.00;99530.31;5053227;28;20454;-57
2021/04/11 00:20:33;;;;;;;0.97;0.97;;;;;;;9.82;100.00;99533.19;5053513;28;20454;-57
2021/04/11 00:22:59;;;;;;;0.33;0.23;;;;;;;9.73;100.00;99524.69;5054455;28;20508;-57
2021/04/11 00:25:30;;;;;;;0.30;0.20;;;;;;;9.69;100.00;99528.34;5054458;28;20536;-57
2021/04/11 00:27:57;;;;;;;0.30;0.20;;;;;;;9.62;100.00;99515.38;5045575;28;20502;-58
2021/04/11 00:30:24;;;;;;;0.30;0.20;;;;;;;9.55;100.00;99519.16;5054433;28;20524;-58
2021/04/11 00:32:55;;;;;;;0.40;0.40;;;;;;;9.57;100.00;99520.84;5045152;28;20460;-57
2021/04/11 00:35:22;;;;;;;0.57;0.57;;;;;;;9.32;100.00;99502.31;5053030;28;20454;-58
2021/04/11 00:37:48;;;;;;;0.30;0.20;;;;;;;9.10;100.00;99507.50;5054044;28;20552;-57
2021/04/11 00:40:20;;;;;;;0.30;0.20;;;;;;;9.08;100.00;99504.06;5054013;28;20481;-57
2021/04/11 00:42:54;;;;;;;0.30;0.20;;;;;;;9.20;100.00;99497.44;5053783;28;20450;-58
2021/04/11 00:45:37;;;;;;;0.30;0.20;;;;;;;9.26;100.00;99502.53;5053730;28;20497;-58
2021/04/11 00:48:04;;;;;;;0.83;0.80;;;;;;;9.17;100.00;99501.06;5053745;28;20932;-58
2021/04/11 00:50:30;;;;;;;0.30;0.20;;;;;;;9.25;100.00;99500.78;5053847;28;20451;-57
2021/04/11 00:52:56;;;;;;;0.30;0.20;;;;;;;9.57;100.00;99498.75;5053843;28;20451;-58
2021/04/11 00:55:25;;;;;;;0.40;0.27;;;;;;;9.49;100.00;99493.75;5052939;28;20541;-58
2021/04/11 00:57:52;;;;;;;0.30;0.20;;;;;;;9.40;100.00;99488.75;5050854;28;20486;-57
2021/04/11 01:00:24;;;;;;;0.30;0.20;;;;;;;9.33;100.00;99484.63;5048982;28;20532;-58
2021/04/11 01:02:50;;;;;;;0.43;0.40;;;;;;;9.31;100.00;99479.34;5054139;28;20451;-58
2021/04/11 01:05:22;;;;;;;0.30;0.20;;;;;;;9.35;100.00;99488.06;5053533;28;20490;-58
2021/04/11 01:07:49;;;;;;;0.30;0.20;;;;;;;9.36;100.00;99482.72;5044447;28;20479;-58
2021/04/11 01:10:25;;;;;;;0.30;0.20;;;;;;;9.47;100.00;99477.03;5053229;28;20951;-58
2021/04/11 01:12:53;;;;;;;0.33;0.23;;;;;;;9.53;100.00;99473.25;5052280;28;20496;-58
2021/04/11 01:15:29;;;;;;;0.30;0.20;;;;;;;9.44;100.00;99453.22;5053556;28;20957;-58
2021/04/11 01:17:56;;;;;;;0.30;0.20;;;;;;;9.48;100.00;99452.22;5053383;28;20466;-57
2021/04/11 01:20:24;;;;;;;0.30;0.20;;;;;;;9.48;100.00;99458.38;5053101;28;20455;-57
2021/04/11 01:23:02;;;;;;;1.53;0.63;;;;;;;9.39;100.00;99449.91;5053571;28;20450;-58
2021/04/11 01:25:31;;;;;;;0.30;0.20;;;;;;;9.30;100.00;99447.56;5028354;28;20497;-58
2021/04/11 01:28:00;;;;;;;0.30;0.20;;;;;;;9.28;100.00;99430.88;5044485;28;20521;-58
2021/04/11 01:30:32;;;;;;;0.50;0.50;;;;;;;9.07;100.00;99436.06;5053106;28;20997;-57
2021/04/11 01:33:01;;;;;;;0.30;0.20;;;;;;;9.31;100.00;99430.75;5053080;28;20446;-58
2021/04/11 01:35:28;;;;;;;0.37;0.30;;;;;;;9.30;100.00;99434.31;5053081;28;20504;-58
2021/04/11 01:37:57;;;;;;;0.30;0.20;;;;;;;9.35;100.00;99421.78;5052921;28;20475;-58
2021/04/11 01:40:35;;;;;;;0.30;0.20;;;;;;;9.22;100.00;99431.97;5053058;28;20450;-57
2021/04/11 01:43:04;;;;;;;0.30;0.20;;;;;;;9.53;100.00;99436.13;5052635;28;20939;-57
2021/04/11 01:45:33;;;;;;;0.30;0.20;;;;;;;9.49;100.00;99438.91;5052553;28;20548;-57
2021/04/11 01:48:00;;;;;;;0.30;0.20;;;;;;;9.72;100.00;99443.31;5052596;28;20454;-58
2021/04/11 01:50:26;;;;;;;0.30;0.20;;;;;;;9.70;100.00;99431.03;5051554;28;20450;-58
2021/04/11 01:52:54;;;;;;;0.30;0.20;;;;;;;9.63;100.00;99433.06;5052883;28;20473;-57
2021/04/11 01:55:22;;;;;;;0.30;0.20;;;;;;;9.65;100.00;99436.50;5052790;28;20513;-57
2021/04/11 01:57:53;;;;;;;0.30;0.20;;;;;;;9.84;100.00;99434.00;5050104;28;20473;-57
2021/04/11 02:00:38;;;;;;;0.30;0.20;;;;;;;9.86;100.00;99434.78;5043218;28;20432;-58
2021/04/11 02:03:14;;;;;;;0.30;0.20;;;;;;;9.63;100.00;99437.50;5045339;28;20512;-58
2021/04/11 02:05:42;;;;;;;0.30;0.20;;;;;;;9.57;100.00;99437.72;5026883;28;20479;-58
2021/04/11 02:08:10;;;;;;;0.30;0.20;;;;;;;9.63;100.00;99424.25;5040680;28;20451;-58
2021/04/11 02:10:39;;;;;;;0.30;0.20;;;;;;;9.50;100.00;99430.00;5052589;28;20474;-57
2021/04/11 02:13:07;;;;;;;0.30;0.20;;;;;;;9.47;100.00;99421.31;5052348;28;20454;-58
2021/04/11 02:15:39;;;;;;;0.30;0.20;;;;;;;9.45;100.00;99425.78;5052452;28;20450;-58
2021/04/11 02:18:06;;;;;;;0.30;0.20;;;;;;;9.27;100.00;99415.88;5052276;28;20462;-58
2021/04/11 02:20:33;;;;;;;0.30;0.20;;;;;;;9.17;100.00;99418.88;5052286;28;20511;-57
2021/04/11 02:22:59;;;;;;;0.30;0.20;;;;;;;9.27;100.00;99415.88;5052334;28;20527;-58
2021/04/11 02:25:30;;;;;;;0.30;0.20;;;;;;;9.41;100.00;99410.91;5052193;28;20490;-58
2021/04/11 02:27:56;;;;;;;0.30;0.20;;;;;;;9.08;100.00;99407.75;5046246;28;20471;-58
2021/04/11 02:30:25;;;;;;;0.40;0.20;;;;;;;9.09;100.00;99398.88;5052547;28;20450;-57
2021/04/11 02:32:51;;;;;;;0.30;0.20;;;;;;;9.13;100.00;99400.47;5051991;28;20939;-58
2021/04/11 02:35:23;;;;;;;0.50;0.43;;;;;;;9.36;100.00;99403.16;5051629;28;20955;-58
2021/04/11 02:37:55;;;;;;;0.57;0.57;;;;;;;9.37;100.00;99407.53;5051880;28;20540;-58
2021/04/11 02:40:30;;;;;;;4.40;0.90;;;;;;;9.49;100.00;99414.16;5052157;28;20483;-58
2021/04/11 02:42:58;;;;;;;0.30;0.20;;;;;;;9.28;100.00;99407.88;5027705;28;20446;-58
2021/04/11 02:45:28;;;;;;;0.30;0.20;;;;;;;9.41;100.00;99410.91;5051808;28;20486;-58
2021/04/11 02:47:55;;;;;;;0.30;0.20;;;;;;;9.32;100.00;99405.94;5051910;28;20482;-58
2021/04/11 02:50:23;;;;;;;0.30;0.20;;;;;;;9.34;100.00;99412.97;5050996;28;20836;-58
2021/04/11 02:53:13;;;;;;;0.30;0.20;;;;;;;9.43;100.00;99412.59;5052088;28;20458;-58
2021/04/11 02:55:41;;;;;;;0.40;0.20;;;;;;;9.72;100.00;99414.09;5052038;28;20862;-58
2021/04/11 02:58:13;;;;;;;0.40;0.20;;;;;;;9.46;100.00;99420.44;5040143;28;20463;-58
2021/04/11 03:00:47;;;;;;;0.30;0.20;;;;;;;9.48;100.00;99412.44;5038880;28;20444;-58
2021/04/11 03:03:13;;;;;;;0.30;0.20;;;;;;;9.40;100.00;99418.00;5046119;28;20496;-58
2021/04/11 03:05:40;;;;;;;0.30;0.20;;;;;;;9.38;100.00;99409.25;5051495;28;21007;-58
2021/04/11 03:08:10;;;;;;;0.30;0.20;;;;;;;9.43;100.00;99423.19;5039755;28;20447;-58
2021/04/11 03:10:58;;;;;;;0.30;0.20;;;;;;;9.44;100.00;99424.91;5051726;28;20473;-58
2021/04/11 03:13:26;;;;;;;0.30;0.20;;;;;;;9.42;100.00;99423.25;5052072;28;20812;-58
2021/04/11 03:15:56;;;;;;;0.60;0.60;;;;;;;9.73;100.00;99421.19;5051730;28;20517;-59
2021/04/11 03:18:23;;;;;;;0.30;0.20;;;;;;;9.54;100.00;99417.50;5053242;28;20451;-58
2021/04/11 03:20:50;;;;;;;0.30;0.20;;;;;;;9.87;100.00;99411.78;5055585;28;20989;-57
2021/04/11 03:23:18;;;;;;;0.30;0.20;;;;;;;9.50;100.00;99410.59;5055405;28;20459;-57
2021/04/11 03:25:45;;;;;;;0.40;0.33;;;;;;;9.59;100.00;99417.28;5055233;28;20487;-57
2021/04/11 03:28:25;;;;;;;1.10;0.53;;;;;;;9.67;100.00;99410.78;5048416;28;20450;-57
2021/04/11 03:31:01;;;;;;;0.30;0.20;;;;;;;9.65;100.00;99407.34;5055279;28;20453;-58
2021/04/11 03:33:27;;;;;;;0.30;0.20;;;;;;;9.53;100.00;99399.84;5055370;28;20476;-57
2021/04/11 03:35:54;;;;;;;0.30;0.20;;;;;;;9.54;100.00;99398.91;5055420;28;20470;-58
2021/04/11 03:38:24;;;;;;;0.40;0.40;;;;;;;9.44;100.00;99403.69;5055308;28;20528;-58
2021/04/11 03:40:54;;;;;;;0.50;0.47;;;;;;;9.57;100.00;99404.09;5055094;28;20503;-58
2021/04/11 03:43:28;;;;;;;0.40;0.20;;;;;;;9.58;100.00;99408.47;5055613;28;20457;-58
2021/04/11 03:45:57;;;;;;;0.30;0.20;;;;;;;9.48;100.00;99404.47;5054937;28;20490;-57
2021/04/11 03:48:31;;;;;;;0.30;0.20;;;;;;;9.57;100.00;99397.94;5055257;28;20817;-58
2021/04/11 03:51:08;;;;;;;0.30;0.20;;;;;;;9.52;100.00;99394.59;5055331;28;20446;-58
2021/04/11 03:53:58;;;;;;;1.03;1.03;;;;;;;9.45;100.00;99399.25;5054121;28;20447;-57
2021/04/11 03:56:33;;;;;;;0.30;0.20;;;;;;;9.52;100.00;99400.78;5054558;28;20481;-58
2021/04/11 03:59:03;;;;;;;0.30;0.20;;;;;;;9.49;100.00;99404.41;5041801;28;20443;-58
2021/04/11 04:01:35;;;;;;;0.30;0.20;;;;;;;9.37;100.00;99398.72;5034752;28;20451;-58
2021/04/11 04:04:06;;;;;;;0.30;0.20;;;;;;;9.38;100.00;99401.28;5028355;28;20486;-58
2021/04/11 04:06:35;;;;;;;0.30;0.20;;;;;;;9.34;100.00;99383.78;5049162;28;20517;-58
2021/04/11 04:09:05;;;;;;;0.30;0.20;;;;;;;9.22;100.00;99378.06;5054598;28;20493;-58
2021/04/11 04:12:09;;;;;;;0.73;0.73;;;;;;;9.20;100.00;99386.09;5054891;28;20442;-58
2021/04/11 04:14:50;;;;;;;0.30;0.20;;;;;;;9.31;100.00;99388.31;5054693;28;20450;-58
2021/04/11 04:17:58;;;;;;;0.30;0.20;;;;;;;9.26;100.00;99390.28;5054379;28;20496;-58
2021/04/11 04:20:43;;;;;;;0.30;0.20;;;;;;;9.30;100.00;99387.44;5027570;28;20453;-57
2021/04/11 04:23:09;;;;;;;0.30;0.20;;;;;;;9.27;100.00;99389.38;5054325;28;20496;-58
2021/04/11 04:25:48;;;;;;;0.30;0.20;;;;;;;9.25;100.00;99389.41;5054117;28;20478;-58
2021/04/11 04:28:20;;;;;;;0.67;0.67;;;;;;;9.22;100.00;99394.84;5033632;28;20481;-58
2021/04/11 04:30:51;;;;;;;0.30;0.20;;;;;;;9.16;100.00;99395.91;5053050;28;20489;-58
2021/04/11 04:33:39;;;;;;;0.30;0.20;;;;;;;9.16;100.00;99398.56;5054397;28;20473;-58
2021/04/11 04:36:20;;;;;;;0.30;0.20;;;;;;;8.99;100.00;99398.34;5054153;28;20466;-58
2021/04/11 04:38:46;;;;;;;0.30;0.20;;;;;;;9.08;100.00;99405.09;5054212;28;21001;-58
2021/04/11 04:41:41;;;;;;;0.30;0.20;;;;;;;9.06;100.00;99401.66;5053978;28;20446;-58
2021/04/11 04:44:36;;;;;;;0.50;0.50;;;;;;;8.84;100.00;99398.91;5053998;28;20482;-57
2021/04/11 04:47:15;;;;;;;0.30;0.20;;;;;;;8.81;100.00;99404.31;5054149;28;20554;-57
2021/04/11 04:49:56;;;;;;;0.30;0.20;;;;;;;8.73;100.00;99395.75;5054157;28;21027;-57
2021/04/11 04:52:28;;;;;;;0.30;0.20;;;;;;;8.71;100.00;99398.47;5054116;28;20443;-57
2021/04/11 04:55:02;;;;;;;0.40;0.30;;;;;;;8.78;100.00;99399.13;5053733;28;20489;-57
2021/04/11 04:57:34;;;;;;;0.37;0.23;;;;;;;8.75;100.00;99401.88;5047985;28;20490;-57
2021/04/11 05:00:18;;;;;;;0.30;0.20;;;;;;;8.81;100.00;99402.53;5041508;28;20448;-57
2021/04/11 05:03:10;;;;;;;0.30;0.20;;;;;;;8.97;100.00;99407.28;5044087;28;21013;-57
2021/04/11 05:05:45;;;;;;;0.57;0.57;;;;;;;9.01;100.00;99407.09;5009616;28;20499;-58
2021/04/11 05:08:20;;;;;;;0.40;0.30;;;;;;;8.95;100.00;99396.72;5044045;28;20446;-58
2021/04/11 05:10:58;;;;;;;0.40;0.40;;;;;;;8.99;100.00;99394.81;5053807;28;20443;-58
2021/04/11 05:13:30;;;;;;;1.73;1.73;;;;;;;9.03;100.00;99401.72;5053401;28;20454;-58
2021/04/11 05:16:06;;;;;;;0.30;0.20;;;;;;;9.12;100.00;99407.56;5053426;28;21029;-58
2021/04/11 05:18:38;;;;;;;0.30;0.20;;;;;;;9.17;100.00;99405.59;5053431;28;20873;-58
2021/04/11 05:21:14;;;;;;;0.30;0.20;;;;;;;9.47;100.00;99405.41;5053330;28;20450;-58
2021/04/11 05:23:46;;;;;;;0.40;0.30;;;;;;;9.47;100.00;99406.25;5053414;28;20444;-58
2021/04/11 05:26:22;;;;;;;1.03;1.03;;;;;;;9.69;100.00;99408.06;5053014;28;20474;-57
2021/04/11 05:29:16;;;;;;;0.30;0.20;;;;;;;9.29;100.00;99419.34;5047582;28;20443;-58
2021/04/11 05:31:43;;;;;;;0.60;0.60;;;;;;;9.35;100.00;99411.16;5030545;28;20472;-57
2021/04/11 05:34:13;;;;;;;0.30;0.20;;;;;;;9.26;100.00;99407.06;5039698;28;20455;-58
2021/04/11 05:36:51;;;;;;;0.30;0.20;;;;;;;9.32;100.00;99413.91;5053376;28;20528;-58
2021/04/11 05:39:32;;;;;;;0.30;0.20;;;;;;;9.29;100.00;99414.91;5052971;28;20438;-57
2021/04/11 05:42:07;;;;;;;0.30;0.20;;;;;;;9.44;100.00;99424.91;5052739;28;20447;-58
2021/04/11 05:44:59;;;;;;;0.63;0.63;;;;;;;9.32;100.00;99420.09;5013493;28;20468;-58
2021/04/11 05:47:38;;;;;;;1.37;1.37;;;;;;;9.47;100.00;99427.47;5035174;28;20475;-58
2021/04/11 05:50:14;;;;;;;0.30;0.20;;;;;;;9.33;100.00;99415.66;5053071;28;20447;-58
2021/04/11 05:52:49;;;;;;;0.30;0.20;;;;;;;9.48;100.00;99415.09;5045765;28;20501;-57
2021/04/11 05:55:18;;;;;;;0.80;0.80;;;;;;;9.43;100.00;99422.34;5046614;28;20434;-57
2021/04/11 05:57:53;;;;;;;0.30;0.20;;;;;;;9.53;100.00;99422.84;5024221;28;20468;-57
2021/04/11 06:00:30;;;;;;;0.30;0.20;;;;;;;9.63;100.00;99434.84;5037644;28;20436;-57
2021/04/11 06:03:04;;;;;;;0.30;0.20;;;;;;;9.62;100.00;99428.69;5044514;28;20924;-57
2021/04/11 06:05:40;;;;;;;1.07;0.97;;;;;;;9.80;100.00;99430.59;5052259;28;20491;-57
2021/04/11 06:08:35;;;;;;;0.30;0.20;;;;;;;10.03;100.00;99432.38;5052593;28;20962;-57
2021/04/11 06:11:11;;;;;;;0.30;0.20;;;;;;;10.23;100.00;99433.38;5038779;28;20459;-57
2021/04/11 06:13:49;;;;;;;1.63;0.97;;;;;;;10.24;100.00;99437.75;5025583;28;20446;-57
2021/04/11 06:16:18;;;;;;;0.30;0.20;;;;;;;10.18;100.00;99433.53;5038777;28;20848;-57
2021/04/11 06:18:47;;;;;;;0.50;0.50;;;;;;;10.12;100.00;99432.91;5052495;28;20469;-57
2021/04/11 06:21:43;;;;;;;0.30;0.20;;;;;;;10.03;100.00;99450.09;5052580;28;20458;-57
2021/04/11 06:24:33;;;;;;;0.30;0.20;;;;;;;10.14;100.00;99429.25;5050950;28;20490;-57
2021/04/11 06:26:59;;;;;;;0.40;0.20;;;;;;;10.24;100.00;99417.38;5050092;28;20475;-57
2021/04/11 06:29:31;;;;;;;0.30;0.20;;;;;;;10.63;100.00;99420.13;5045676;28;20451;-58
2021/04/11 06:32:12;;;;;;;0.40;0.40;;;;;;;10.46;100.00;99433.28;5042518;28;20447;-57
2021/04/11 06:34:43;;;;;;;0.30;0.20;;;;;;;10.39;100.00;99440.63;5046747;28;20443;-57
2021/04/11 06:37:14;;;;;;;0.30;0.20;;;;;;;10.81;100.00;99431.75;5045045;28;20528;-58
2021/04/11 06:39:43;;;;;;;0.30;0.20;;;;;;;11.02;100.00;99435.28;5026542;28;20446;-59
2021/04/11 06:42:25;;;;;;;1.50;0.90;;;;;;;11.25;100.00;99434.28;5052236;28;20790;-59
2021/04/11 06:45:12;;;;;;;0.30;0.20;;;;;;;11.02;100.00;99437.09;5042841;28;20545;-59
2021/04/11 06:48:16;;;;;;;1.47;1.47;;;;;;;11.27;100.00;99427.09;5051394;28;20528;-59
2021/04/11 06:51:16;;;;;;;0.70;0.70;;;;;;;11.45;100.00;99428.03;5051968;28;20864;-59
2021/04/11 06:54:00;;;;;;;0.30;0.20;;;;;;;11.78;100.00;99434.44;5052187;28;20446;-58
2021/04/11 06:56:42;;;;;;;0.30;0.20;;;;;;;11.69;100.00;99436.69;5048027;28;20467;-58
2021/04/11 06:59:18;;;;;;;0.63;0.63;;;;;;;11.76;100.00;99443.44;5049129;28;20451;-58
2021/04/11 07:02:01;;;;;;;0.30;0.20;;;;;;;11.78;100.00;99446.88;5036592;28;20506;-58
2021/04/11 07:04:37;;;;;;;6.80;1.33;;;;;;;11.96;100.00;99443.41;5056435;28;20486;-58
2021/04/11 07:07:25;;;;;;;0.30;0.20;;;;;;;12.09;100.00;99436.56;5050240;28;20460;-58
2021/04/11 07:10:32;;;;;;;0.30;0.20;;;;;;;12.52;100.00;99421.09;5055928;28;20468;-58
2021/04/11 07:13:39;;;;;;;0.40;0.20;;;;;;;12.85;100.00;99396.31;5000568;28;20962;-58
2021/04/11 07:16:27;;;;;;;0.30;0.23;;;;;;;13.08;100.00;99403.97;5055692;28;20989;-58
2021/04/11 07:19:31;;;;;;;0.30;0.20;;;;;;;12.91;100.00;99402.19;5034747;28;20461;-58
2021/04/11 07:22:15;;;;;;;0.97;0.97;;;;;;;13.37;100.00;99406.91;5031320;28;20855;-58
2021/04/11 07:25:20;;;;;;;0.30;0.20;;;;;;;13.22;100.00;99405.94;5055318;28;20504;-58
2021/04/11 07:27:57;;;;;;;0.30;0.20;;;;;;;13.48;100.00;99413.41;5022170;28;20881;-58
2021/04/11 07:30:26;;;;;;;0.30;0.20;;;;;;;13.50;100.00;99415.97;5055850;28;20826;-58
2021/04/11 07:33:23;;;;;;;0.30;0.20;;;;;;;13.32;100.00;99408.03;5055286;28;20512;-59
2021/04/11 07:36:26;;;;;;;0.30;0.20;;;;;;;13.77;98.86;99408.25;5055181;28;20442;-58
2021/04/11 07:39:14;;;;;;;0.30;0.20;;;;;;;13.83;97.96;99395.41;5055449;28;20447;-59
2021/04/11 07:41:40;;;;;;;0.30;0.20;;;;;;;14.13;95.67;99408.00;5054988;28;20456;-58
2021/04/11 07:44:47;;;;;;;0.30;0.20;;;;;;;14.12;93.93;99399.13;5055133;28;20462;-58
2021/04/11 07:47:26;;;;;;;0.30;0.20;;;;;;;14.40;94.26;99411.75;5004335;28;20492;-58
2021/04/11 07:50:11;;;;;;;0.30;0.20;;;;;;;14.40;94.25;99406.41;5054988;28;20525;-58
2021/04/11 07:53:05;;;;;;;0.30;0.20;;;;;;;14.43;94.01;99403.53;5054642;28;20557;-58
2021/04/11 07:55:37;;;;;;;0.30;0.20;;;;;;;14.95;91.96;99416.53;5055078;28;20856;-58
2021/04/11 07:58:22;;;;;;;0.30;0.20;;;;;;;15.09;91.42;99416.53;5054409;28;20462;-58
2021/04/11 08:01:18;;;;;;;0.30;0.20;;;;;;;15.24;91.62;99427.25;5041613;28;20463;-59
2021/04/11 08:04:08;;;;;;;0.30;0.20;;;;;;;15.30;88.97;99422.38;5044974;28;20991;-59
2021/04/11 08:06:49;;;;;;;0.30;0.20;;;;;;;15.55;88.12;99419.03;5048939;28;20544;-59
2021/04/11 08:09:44;;;;;;;0.30;0.20;;;;;;;15.94;85.84;99398.72;5054774;28;20501;-59
2021/04/11 08:12:42;;;;;;;0.30;0.20;;;;;;;15.63;84.00;99405.19;5030832;28;20542;-59
2021/04/11 08:15:17;;;;;;;0.30;0.20;;;;;;;15.78;85.02;99414.94;5054416;28;21058;-59
2021/04/11 08:18:10;;;;;;;0.40;0.30;;;;;;;15.95;82.84;99411.16;5053550;28;20481;-59
2021/04/11 08:21:19;;;;;;;0.40;0.30;;;;;;;15.66;83.52;99413.91;5054636;28;20485;-59
2021/04/11 08:23:47;;;;;;;0.40;0.20;;;;;;;15.65;83.41;99414.84;4992544;28;20461;-59
2021/04/11 08:26:51;;;;;;;0.30;0.20;;;;;;;15.85;83.01;99415.38;4999239;28;20554;-59
2021/04/11 08:29:38;;;;;;;0.30;0.20;;;;;;;15.63;83.91;99418.59;5036814;28;20450;-59
2021/04/11 08:32:49;;;;;;;0.30;0.20;;;;;;;15.87;82.68;99429.53;5053411;28;20538;-59
2021/04/11 08:35:27;;;;;;;0.40;0.20;;;;;;;15.74;80.88;99436.66;5035654;28;20446;-59
2021/04/11 08:38:17;;;;;;;0.40;0.20;;;;;;;15.59;81.93;99428.63;5053818;28;20508;-59
2021/04/11 08:41:03;;;;;;;0.30;0.20;;;;;;;15.49;82.94;99438.19;5054349;28;20466;-59
2021/04/11 08:43:51;;;;;;;0.30;0.20;;;;;;;15.27;82.90;99427.06;5052869;28;20442;-59
2021/04/11 08:46:45;;;;;;;0.30;0.20;;;;;;;15.33;82.82;99424.84;5030252;28;20495;-59
2021/04/11 08:49:19;;;;;;;0.30;0.20;;;;;;;15.61;84.13;99432.06;5035158;28;20504;-59
2021/04/11 08:52:05;;;;;;;0.57;0.57;;;;;;;15.36;85.31;99437.22;5054102;28;20504;-59
2021/04/11 08:54:48;;;;;;;0.30;0.20;;;;;;;15.67;84.61;99437.03;5031666;28;20447;-59
2021/04/11 08:57:31;;;;;;;0.30;0.20;;;;;;;15.76;83.18;99434.72;5049699;28;20476;-59
2021/04/11 09:00:21;;;;;;;0.30;0.20;;;;;;;15.60;82.39;99440.19;5041117;28;20452;-59
2021/04/11 09:03:08;;;;;;;2.83;1.00;;;;;;;15.75;82.74;99435.69;5044470;28;20451;-59
2021/04/11 09:05:53;;;;;;;0.40;0.20;;;;;;;15.47;81.72;99428.50;5053548;28;20517;-59
2021/04/11 09:08:38;;;;;;;0.30;0.20;;;;;;;15.65;82.14;99432.75;5044725;28;20500;-59
2021/04/11 09:11:32;;;;;;;0.30;0.20;;;;;;;15.67;81.35;99438.88;5053371;28;20857;-59
2021/04/11 09:14:13;;;;;;;0.30;0.20;;;;;;;15.88;81.94;99444.66;5031022;28;20447;-59
2021/04/11 09:16:39;;;;;;;0.40;0.20;;;;;;;15.95;81.19;99446.00;5052760;28;20473;-59
2021/04/11 09:19:37;;;;;;;0.30;0.20;;;;;;;15.96;81.24;99445.03;5053675;28;20469;-59
2021/04/11 09:22:21;;;;;;;0.30;0.20;;;;;;;15.99;81.74;99444.84;5039255;28;20447;-59
2021/04/11 09:25:16;;;;;;;0.30;0.20;;;;;;;16.12;81.42;99448.44;5052971;28;20840;-59
2021/04/11 09:28:01;;;;;;;0.30;0.20;;;;;;;15.94;81.72;99452.34;5046332;28;20490;-59
2021/04/11 09:30:48;;;;;;;0.30;0.20;;;;;;;15.81;82.71;99446.03;5053372;28;20939;-59
2021/04/11 09:33:33;;;;;;;0.53;0.53;;;;;;;16.08;82.36;99454.13;5053418;28;20504;-59
2021/04/11 09:36:20;;;;;;;0.30;0.20;;;;;;;15.66;83.33;99456.75;5052992;28;20486;-59
2021/04/11 09:39:13;;;;;;;0.30;0.20;;;;;;;15.38;84.36;99462.09;5041229;28;20498;-56
2021/04/11 09:42:01;;;;;;;0.30;0.20;;;;;;;15.31;85.34;99472.28;5031997;28;20496;-56
2021/04/11 09:45:02;;;;;;;0.30;0.20;;;;;;;15.22;84.06;99475.56;5047679;28;20455;-56
2021/04/11 09:48:07;;;;;;;0.30;0.20;;;;;;;14.82;86.12;99480.63;5049975;28;20509;-56
2021/04/11 09:50:52;;;;;;;0.30;0.20;;;;;;;14.94;86.04;99491.50;5039622;28;20509;-56
2021/04/11 09:53:24;;;;;;;0.30;0.20;;;;;;;14.90;85.26;99488.16;5052966;28;20843;-56
2021/04/11 09:56:19;;;;;;;0.30;0.20;;;;;;;14.92;85.40;99490.75;5039512;28;20450;-56
2021/04/11 09:58:48;;;;;;;0.30;0.20;;;;;;;14.60;85.84;99485.47;5029383;28;20457;-56
2021/04/11 10:01:23;;;;;;;0.30;0.20;;;;;;;14.34;87.49;99494.97;5036077;28;20872;-55
2021/04/11 10:04:07;;;;;;;0.30;0.20;;;;;;;14.55;87.89;99495.59;5050770;28;20827;-56
2021/04/11 10:06:39;;;;;;;0.30;0.20;;;;;;;14.73;88.00;99502.53;5046987;28;20495;-56
2021/04/11 10:09:36;;;;;;;0.30;0.20;;;;;;;14.24;87.92;99507.13;5052632;28;20463;-56
2021/04/11 10:12:20;;;;;;;0.30;0.20;;;;;;;14.29;89.19;99506.88;5025129;28;20458;-56
2021/04/11 10:14:59;;;;;;;0.30;0.20;;;;;;;14.18;89.70;99505.66;5050303;28;20480;-56
2021/04/11 10:17:44;;;;;;;0.30;0.20;;;;;;;14.23;88.51;99505.41;5032541;28;20980;-56
2021/04/11 10:20:18;;;;;;;0.30;0.20;;;;;;;13.98;89.13;99505.03;5039357;28;20450;-56
2021/04/11 10:22:54;;;;;;;0.30;0.20;;;;;;;14.12;88.03;99489.13;5052429;28;20441;-56
2021/04/11 10:25:28;;;;;;;0.30;0.20;;;;;;;14.29;88.08;99488.16;5052598;28;20854;-56
2021/04/11 10:27:57;;;;;;;0.30;0.20;;;;;;;14.46;86.89;99494.31;5034576;28;20472;-56
2021/04/11 10:30:25;;;;;;;0.30;0.20;;;;;;;14.42;85.75;99495.41;5043514;28;20999;-56
2021/04/11 10:33:08;;;;;;;0.30;0.20;;;;;;;14.44;86.57;99506.91;5052322;28;20477;-55
2021/04/11 10:35:49;;;;;;;0.30;0.20;;;;;;;14.13;87.23;99509.56;5039140;28;20447;-57
2021/04/11 10:38:37;;;;;;;0.30;0.20;;;;;;;14.11;87.55;99516.78;5030289;28;20459;-56
2021/04/11 10:41:33;;;;;;;0.70;0.70;;;;;;;13.91;87.91;99518.75;5037643;28;20500;-56
2021/04/11 10:44:35;;;;;;;0.40;0.30;;;;;;;13.97;88.21;99514.84;5052070;28;20447;-56
2021/04/11 10:47:23;;;;;;;0.30;0.20;;;;;;;13.98;88.28;99516.63;5050796;28;20518;-56
2021/04/11 10:50:06;;;;;;;0.30;0.20;;;;;;;13.76;89.38;99522.25;5051968;28;20490;-56
2021/04/11 10:52:47;;;;;;;0.30;0.20;;;;;;;14.00;88.66;99516.53;5032650;28;20443;-57
2021/04/11 10:55:29;;;;;;;0.87;0.87;;;;;;;13.92;89.78;99515.13;5045721;28;20463;-56
2021/04/11 10:58:08;;;;;;;0.30;0.20;;;;;;;13.90;89.40;99522.34;5032040;28;20464;-57
2021/04/11 11:00:48;;;;;;;0.30;0.20;;;;;;;13.60;91.06;99524.03;5032043;28;20439;-56
2021/04/11 11:03:55;;;;;;;0.30;0.20;;;;;;;13.29;92.95;99540.75;5033062;28;21208;-56
2021/04/11 11:07:09;;;;;;;0.30;0.30;;;;;;;13.27;94.65;99542.66;5038465;28;20869;-57
2021/04/11 11:09:50;;;;;;;0.30;0.20;;;;;;;12.98;96.53;99542.31;4977291;28;20462;-56
2021/04/11 11:12:37;;;;;;;0.30;0.20;;;;;;;13.13;96.32;99538.00;4990625;28;20446;-56
2021/04/11 11:15:19;;;;;;;0.30;0.20;;;;;;;13.50;96.09;99537.00;5014227;28;20447;-55
2021/04/11 11:17:54;;;;;;;0.30;0.20;;;;;;;13.13;98.92;99540.66;5050430;28;20549;-56
2021/04/11 11:20:26;;;;;;;0.30;0.20;;;;;;;13.37;99.64;99541.25;5039966;28;20454;-55
2021/04/11 11:23:30;;;;;;;0.40;0.30;;;;;;;13.07;100.00;99548.13;5036282;28;20448;-56
2021/04/11 11:26:15;;;;;;;0.30;0.20;;;;;;;13.02;100.00;99541.22;5019282;28;20519;-56
2021/04/11 11:29:15;;;;;;;0.30;0.20;;;;;;;13.02;100.00;99540.38;5045755;28;20457;-55
2021/04/11 11:31:55;;;;;;;0.30;0.20;;;;;;;12.99;100.00;99546.69;5051804;28;20928;-56
2021/04/11 11:34:48;;;;;;;0.30;0.20;;;;;;;13.13;100.00;99542.47;5038532;28;20565;-57
2021/04/11 11:37:39;;;;;;;0.30;0.20;;;;;;;13.11;100.00;99534.53;5045702;28;20904;-57
2021/04/11 11:40:42;;;;;;;0.30;0.20;;;;;;;13.28;100.00;99539.03;5044891;28;20446;-56
2021/04/11 11:43:42;;;;;;;0.30;0.20;;;;;;;13.48;100.00;99541.53;5024857;28;20494;-56
2021/04/11 11:46:40;;;;;;;0.30;0.20;;;;;;;13.16;100.00;99535.19;5041979;28;21065;-56
2021/04/11 11:49:32;;;;;;;0.30;0.20;;;;;;;13.68;100.00;99547.63;5049725;28;20455;-57
2021/04/11 11:52:17;;;;;;;0.30;0.20;;;;;;;13.50;99.77;99555.69;5050104;28;20489;-56
2021/04/11 11:54:56;;;;;;;0.30;0.20;;;;;;;13.58;99.52;99547.28;5054315;28;20430;-57
2021/04/11 11:57:41;;;;;;;0.30;0.20;;;;;;;13.39;99.80;99546.50;5035700;28;20470;-56
2021/04/11 12:00:07;;;;;;;0.40;0.40;;;;;;;13.39;99.43;99546.50;5034952;28;20463;-56
2021/04/11 12:02:44;;;;;;;0.30;0.20;;;;;;;13.59;99.16;99549.00;5049187;28;20501;-55
2021/04/11 12:05:53;;;;;;;0.30;0.20;;;;;;;13.42;99.26;99565.00;5055157;28;20500;-56
2021/04/11 12:08:51;;;;;;;0.30;0.20;;;;;;;12.23;97.94;99563.78;5030785;28;20456;-57
2021/04/11 12:11:52;;;;;;;0.30;0.20;;;;;;;11.40;100.00;99579.94;5054746;28;20449;-56
2021/04/11 12:14:36;;;;;;;0.30;0.20;;;;;;;10.82;100.00;99579.72;5038204;28;20446;-55
2021/04/11 12:17:11;;;;;;;0.30;0.20;;;;;;;10.26;100.00;99590.81;5029230;28;20529;-55
2021/04/11 12:19:57;;;;;;;0.30;0.20;;;;;;;10.18;100.00;99589.34;5054752;28;20943;-56
2021/04/11 12:22:46;;;;;;;0.30;0.20;;;;;;;9.99;100.00;99591.81;5054872;28;20446;-56
2021/04/11 12:25:23;;;;;;;0.30;0.20;;;;;;;9.68;100.00;99589.44;5031628;28;20836;-56
2021/04/11 12:27:50;;;;;;;0.30;0.20;;;;;;;9.66;100.00;99594.81;5048433;28;20524;-56